Hlavní strana
METAR-TAF:

METAR-TAF

Letiště :

Caracas, Venezuela

zeměpisná šířka: 10-36N, zeměpisná délka: 066-59W, výška: 43 m

Aktuální stav počasí

Zpráva byla vytvořena před 52 minutami, v 09:02 UTC
Východoseverovýchodní vítr 9 kt
Teplota
Tlak 1013 hPa

METAR: SVMI 300902Z AUTO 07009KT NCD ///// Q1013

Čas: 05:54 (09:54 UTC)

Předpověď počasí

Zpráva byla vytvořena před 5 hodinami a 54 minutami, v 04:00 UTC
Předpověď platná od 30 v 06 UTC do 31 v 06 UTC
Východoseverovýchodní vítr 6 kt
Viditelnost 10 km a více
Polojasno ve výšce 1600 ft
Změna
od 30 v 06 UTC do 30 v 10 UTC
Východní vítr 5 kt
Viditelnost 10 km a více
Polojasno ve výšce 1600 ft
Oblačno až skoro zataženo ve výšce 7000 ft

TAF: SVMI 300400Z 3006/3106 07006KT 9999 SCT016 TX33/18Z TN25/09Z BECMG 3006/3010 09005KT 9999 SCT016 BKN070

Stav a předpovědi počasí z více než 4 000 letišť (zprávy METAR a TAF).

Červené a žluté tečky na mapě představují dostupné meteorologické stanice.

Když kurzor umístíte na tečku, zobrazí se název stanice.

Pak kliknutím zobrazíte stav a předpověď počasí.

Chcete-li změnit mapu, kliknutím na zelené tlačítko se znaménkem +mapu přiblížíte, kliknutím na zelené tlačítko se znaménkem – mapu oddálíte a kliknutím na zelené šipky přejdete na sousední mapy.


METAR-TAF: